sensor_id;sensor_type;location;lat;lon;timestamp;pressure;altitude;pressure_sealevel;temperature;humidity
49063;BME280;34876;51.464;-0.150;2023-03-03T00:01:34;102673.73;;;13.21;40.06
49063;BME280;34876;51.464;-0.150;2023-03-03T00:04:04;102673.89;;;13.99;37.89
49063;BME280;34876;51.464;-0.150;2023-03-03T00:06:33;102669.11;;;14.61;37.18
49063;BME280;34876;51.464;-0.150;2023-03-03T00:09:03;102676.10;;;14.81;36.24
49063;BME280;34876;51.464;-0.150;2023-03-03T00:11:32;102677.87;;;13.94;37.15
49063;BME280;34876;51.464;-0.150;2023-03-03T00:14:01;102674.91;;;15.19;35.92
49063;BME280;34876;51.464;-0.150;2023-03-03T00:16:34;102673.48;;;14.32;36.34
49063;BME280;34876;51.464;-0.150;2023-03-03T00:19:11;102689.55;;;12.20;40.58
49063;BME280;34876;51.464;-0.150;2023-03-03T00:21:46;102686.51;;;11.40;44.54
49063;BME280;34876;51.464;-0.150;2023-03-03T00:24:19;102680.45;;;14.16;38.24
49063;BME280;34876;51.464;-0.150;2023-03-03T00:26:50;102682.91;;;13.68;39.03
49063;BME280;34876;51.464;-0.150;2023-03-03T00:29:28;102681.65;;;14.72;36.94
49063;BME280;34876;51.464;-0.150;2023-03-03T00:32:15;102690.93;;;14.35;37.09
49063;BME280;34876;51.464;-0.150;2023-03-03T00:34:47;102710.29;;;13.36;38.45
49063;BME280;34876;51.464;-0.150;2023-03-03T00:37:24;102700.45;;;13.00;40.56
49063;BME280;34876;51.464;-0.150;2023-03-03T00:39:58;102708.51;;;11.30;44.17
49063;BME280;34876;51.464;-0.150;2023-03-03T00:42:32;102709.27;;;10.66;44.31
49063;BME280;34876;51.464;-0.150;2023-03-03T00:45:16;102710.58;;;11.04;43.23
49063;BME280;34876;51.464;-0.150;2023-03-03T00:47:49;102712.12;;;11.43;44.14
49063;BME280;34876;51.464;-0.150;2023-03-03T00:50:34;102707.41;;;11.72;42.22
49063;BME280;34876;51.464;-0.150;2023-03-03T00:53:09;102711.65;;;10.90;43.40
49063;BME280;34876;51.464;-0.150;2023-03-03T00:55:39;102705.44;;;11.06;44.29
49063;BME280;34876;51.464;-0.150;2023-03-03T00:58:09;102697.61;;;12.28;42.40
49063;BME280;34876;51.464;-0.150;2023-03-03T01:03:20;102700.78;;;12.41;39.73
49063;BME280;34876;51.464;-0.150;2023-03-03T01:05:51;102697.56;;;13.85;38.85
49063;BME280;34876;51.464;-0.150;2023-03-03T01:08:21;102694.33;;;14.96;36.49
49063;BME280;34876;51.464;-0.150;2023-03-03T01:10:53;102694.11;;;14.78;36.78
49063;BME280;34876;51.464;-0.150;2023-03-03T01:13:27;102706.99;;;12.52;41.41
49063;BME280;34876;51.464;-0.150;2023-03-03T01:15:58;102711.46;;;12.19;41.53
49063;BME280;34876;51.464;-0.150;2023-03-03T01:18:29;102703.14;;;13.13;40.23
49063;BME280;34876;51.464;-0.150;2023-03-03T01:20:59;102703.24;;;14.35;36.51
49063;BME280;34876;51.464;-0.150;2023-03-03T01:23:29;102710.93;;;10.97;44.16
49063;BME280;34876;51.464;-0.150;2023-03-03T01:25:58;102708.43;;;12.30;40.83
49063;BME280;34876;51.464;-0.150;2023-03-03T01:28:27;102714.81;;;12.34;40.42
49063;BME280;34876;51.464;-0.150;2023-03-03T01:30:59;102712.60;;;12.56;41.30
49063;BME280;34876;51.464;-0.150;2023-03-03T01:33:29;102711.56;;;12.96;40.51
49063;BME280;34876;51.464;-0.150;2023-03-03T01:35:58;102709.28;;;13.54;37.12
49063;BME280;34876;51.464;-0.150;2023-03-03T01:38:28;102710.40;;;13.19;38.25
49063;BME280;34876;51.464;-0.150;2023-03-03T01:40:59;102720.30;;;11.27;41.54
49063;BME280;34876;51.464;-0.150;2023-03-03T01:43:29;102708.88;;;13.69;39.09
49063;BME280;34876;51.464;-0.150;2023-03-03T01:47:06;102703.80;;;14.67;36.88
49063;BME280;34876;51.464;-0.150;2023-03-03T01:49:40;102708.47;;;13.12;38.89
49063;BME280;34876;51.464;-0.150;2023-03-03T01:52:15;102706.15;;;13.29;38.84
49063;BME280;34876;51.464;-0.150;2023-03-03T01:54:52;102708.64;;;13.60;38.14
49063;BME280;34876;51.464;-0.150;2023-03-03T01:57:27;102709.95;;;13.39;39.51
49063;BME280;34876;51.464;-0.150;2023-03-03T02:00:02;102705.36;;;14.79;36.54
49063;BME280;34876;51.464;-0.150;2023-03-03T02:02:33;102712.77;;;13.57;38.72
49063;BME280;34876;51.464;-0.150;2023-03-03T02:05:04;102707.52;;;15.18;35.76
49063;BME280;34876;51.464;-0.150;2023-03-03T02:07:36;102705.72;;;14.30;37.22
49063;BME280;34876;51.464;-0.150;2023-03-03T02:10:09;102706.11;;;13.01;39.48
49063;BME280;34876;51.464;-0.150;2023-03-03T02:12:42;102700.11;;;14.81;36.61
49063;BME280;34876;51.464;-0.150;2023-03-03T02:15:17;102697.66;;;15.22;35.37
49063;BME280;34876;51.464;-0.150;2023-03-03T02:17:47;102709.16;;;13.99;37.14
49063;BME280;34876;51.464;-0.150;2023-03-03T02:20:27;102702.59;;;13.44;38.96
49063;BME280;34876;51.464;-0.150;2023-03-03T02:23:03;102700.52;;;14.19;37.75
49063;BME280;34876;51.464;-0.150;2023-03-03T02:25:41;102709.00;;;12.99;39.52
49063;BME280;34876;51.464;-0.150;2023-03-03T02:28:12;102704.59;;;14.09;37.96
49063;BME280;34876;51.464;-0.150;2023-03-03T02:30:41;102713.94;;;12.09;40.50
49063;BME280;34876;51.464;-0.150;2023-03-03T02:33:10;102701.38;;;14.88;36.51
49063;BME280;34876;51.464;-0.150;2023-03-03T02:35:40;102704.90;;;13.95;37.98
49063;BME280;34876;51.464;-0.150;2023-03-03T02:38:17;102700.26;;;14.64;34.81
49063;BME280;34876;51.464;-0.150;2023-03-03T02:40:59;102703.23;;;13.74;38.40
49063;BME280;34876;51.464;-0.150;2023-03-03T02:43:35;102703.66;;;13.78;38.39
49063;BME280;34876;51.464;-0.150;2023-03-03T02:46:07;102708.59;;;12.76;40.74
49063;BME280;34876;51.464;-0.150;2023-03-03T02:48:36;102705.33;;;14.06;37.74
49063;BME280;34876;51.464;-0.150;2023-03-03T02:51:06;102707.88;;;14.52;36.94
49063;BME280;34876;51.464;-0.150;2023-03-03T02:53:35;102708.71;;;14.46;34.88
49063;BME280;34876;51.464;-0.150;2023-03-03T02:56:05;102704.81;;;14.89;36.09
49063;BME280;34876;51.464;-0.150;2023-03-03T02:58:35;102709.31;;;14.61;36.86
49063;BME280;34876;51.464;-0.150;2023-03-03T03:01:05;102707.64;;;15.37;34.68
49063;BME280;34876;51.464;-0.150;2023-03-03T03:03:34;102707.13;;;14.92;36.09
49063;BME280;34876;51.464;-0.150;2023-03-03T03:06:06;102713.03;;;14.42;37.22
49063;BME280;34876;51.464;-0.150;2023-03-03T03:08:36;102717.93;;;13.58;38.42
49063;BME280;34876;51.464;-0.150;2023-03-03T03:11:06;102712.95;;;15.45;35.18
49063;BME280;34876;51.464;-0.150;2023-03-03T03:13:36;102724.16;;;13.91;36.75
49063;BME280;34876;51.464;-0.150;2023-03-03T03:16:08;102720.55;;;14.01;37.87
49063;BME280;34876;51.464;-0.150;2023-03-03T03:18:37;102721.29;;;13.88;36.47
49063;BME280;34876;51.464;-0.150;2023-03-03T03:21:08;102718.54;;;13.60;37.11
49063;BME280;34876;51.464;-0.150;2023-03-03T03:23:39;102717.63;;;15.21;35.61
49063;BME280;34876;51.464;-0.150;2023-03-03T03:26:09;102713.32;;;15.07;35.72
49063;BME280;34876;51.464;-0.150;2023-03-03T03:28:38;102714.28;;;14.31;37.13
49063;BME280;34876;51.464;-0.150;2023-03-03T03:31:08;102711.04;;;15.55;34.96
49063;BME280;34876;51.464;-0.150;2023-03-03T03:33:37;102714.82;;;15.52;34.99
49063;BME280;34876;51.464;-0.150;2023-03-03T03:36:07;102719.82;;;14.10;35.64
49063;BME280;34876;51.464;-0.150;2023-03-03T03:38:37;102724.58;;;14.23;37.40
49063;BME280;34876;51.464;-0.150;2023-03-03T03:41:06;102717.80;;;15.16;35.73
49063;BME280;34876;51.464;-0.150;2023-03-03T03:43:36;102719.62;;;15.65;34.77
49063;BME280;34876;51.464;-0.150;2023-03-03T03:46:06;102725.30;;;15.98;34.06
49063;BME280;34876;51.464;-0.150;2023-03-03T03:48:35;102723.16;;;15.88;34.22
49063;BME280;34876;51.464;-0.150;2023-03-03T03:51:05;102728.35;;;15.67;34.59
49063;BME280;34876;51.464;-0.150;2023-03-03T03:53:34;102728.16;;;15.89;34.19
49063;BME280;34876;51.464;-0.150;2023-03-03T03:56:04;102725.97;;;16.14;33.73
49063;BME280;34876;51.464;-0.150;2023-03-03T03:58:34;102728.49;;;15.60;34.41
49063;BME280;34876;51.464;-0.150;2023-03-03T04:01:05;102726.02;;;15.74;34.50
49063;BME280;34876;51.464;-0.150;2023-03-03T04:03:35;102728.22;;;16.05;33.93
49063;BME280;34876;51.464;-0.150;2023-03-03T04:06:06;102727.23;;;15.25;35.38
49063;BME280;34876;51.464;-0.150;2023-03-03T04:08:36;102728.52;;;15.83;34.36
49063;BME280;34876;51.464;-0.150;2023-03-03T04:11:05;102733.91;;;14.17;34.85
49063;BME280;34876;51.464;-0.150;2023-03-03T04:13:34;102734.13;;;14.09;37.58
49063;BME280;34876;51.464;-0.150;2023-03-03T04:16:03;102733.17;;;15.69;34.66
49063;BME280;34876;51.464;-0.150;2023-03-03T04:18:32;102732.72;;;15.94;34.10
49063;BME280;34876;51.464;-0.150;2023-03-03T04:21:02;102735.22;;;15.57;34.80
49063;BME280;34876;51.464;-0.150;2023-03-03T04:23:31;102736.24;;;15.77;34.45
49063;BME280;34876;51.464;-0.150;2023-03-03T04:26:00;102735.50;;;15.99;34.00
49063;BME280;34876;51.464;-0.150;2023-03-03T04:28:29;102736.14;;;15.76;34.41
49063;BME280;34876;51.464;-0.150;2023-03-03T04:30:59;102736.61;;;14.85;35.35
49063;BME280;34876;51.464;-0.150;2023-03-03T04:33:28;102734.38;;;14.30;34.49
49063;BME280;34876;51.464;-0.150;2023-03-03T04:35:59;102733.39;;;14.36;36.92
49063;BME280;34876;51.464;-0.150;2023-03-03T04:38:29;102730.37;;;14.60;36.62
49063;BME280;34876;51.464;-0.150;2023-03-03T04:40:58;102731.59;;;14.74;36.44
49063;BME280;34876;51.464;-0.150;2023-03-03T04:43:28;102730.24;;;15.58;34.81
49063;BME280;34876;51.464;-0.150;2023-03-03T04:45:57;102732.90;;;15.77;34.40
49063;BME280;34876;51.464;-0.150;2023-03-03T04:48:27;102728.42;;;14.91;35.74
49063;BME280;34876;51.464;-0.150;2023-03-03T04:50:56;102733.60;;;13.74;38.27
49063;BME280;34876;51.464;-0.150;2023-03-03T04:53:26;102735.68;;;13.38;37.07
49063;BME280;34876;51.464;-0.150;2023-03-03T04:55:55;102738.90;;;12.82;40.54
49063;BME280;34876;51.464;-0.150;2023-03-03T04:58:25;102731.17;;;15.00;35.28
49063;BME280;34876;51.464;-0.150;2023-03-03T05:00:56;102731.22;;;15.56;34.54
49063;BME280;34876;51.464;-0.150;2023-03-03T05:03:26;102734.35;;;15.59;34.50
49063;BME280;34876;51.464;-0.150;2023-03-03T05:05:56;102741.72;;;13.59;37.91
49063;BME280;34876;51.464;-0.150;2023-03-03T05:08:26;102739.84;;;15.13;34.36
49063;BME280;34876;51.464;-0.150;2023-03-03T05:10:55;102744.83;;;13.44;36.51
49063;BME280;34876;51.464;-0.150;2023-03-03T05:13:25;102743.96;;;12.59;40.65
49063;BME280;34876;51.464;-0.150;2023-03-03T05:15:55;102742.87;;;14.41;36.84
49063;BME280;34876;51.464;-0.150;2023-03-03T05:18:26;102740.05;;;14.80;36.27
49063;BME280;34876;51.464;-0.150;2023-03-03T05:20:55;102745.26;;;13.76;37.09
49063;BME280;34876;51.464;-0.150;2023-03-03T05:23:25;102745.56;;;13.83;36.26
49063;BME280;34876;51.464;-0.150;2023-03-03T05:25:55;102746.97;;;14.10;37.27
49063;BME280;34876;51.464;-0.150;2023-03-03T05:28:24;102745.48;;;15.38;35.14
49063;BME280;34876;51.464;-0.150;2023-03-03T05:30:54;102750.11;;;13.87;35.64
49063;BME280;34876;51.464;-0.150;2023-03-03T05:33:23;102753.64;;;13.81;37.44
49063;BME280;34876;51.464;-0.150;2023-03-03T05:35:53;102754.05;;;12.89;39.63
49063;BME280;34876;51.464;-0.150;2023-03-03T05:38:22;102749.15;;;13.89;38.17
49063;BME280;34876;51.464;-0.150;2023-03-03T05:40:52;102740.87;;;15.21;35.43
49063;BME280;34876;51.464;-0.150;2023-03-03T05:43:22;102740.00;;;14.92;35.98
49063;BME280;34876;51.464;-0.150;2023-03-03T05:45:54;102742.31;;;14.63;36.57
49063;BME280;34876;51.464;-0.150;2023-03-03T05:48:24;102742.93;;;15.56;34.77
49063;BME280;34876;51.464;-0.150;2023-03-03T05:50:53;102739.36;;;14.63;35.76
49063;BME280;34876;51.464;-0.150;2023-03-03T05:53:22;102739.57;;;14.71;36.46
49063;BME280;34876;51.464;-0.150;2023-03-03T05:55:53;102742.85;;;14.20;36.00
49063;BME280;34876;51.464;-0.150;2023-03-03T05:58:22;102735.75;;;15.36;35.19
49063;BME280;34876;51.464;-0.150;2023-03-03T06:00:51;102736.34;;;15.37;34.90
49063;BME280;34876;51.464;-0.150;2023-03-03T06:03:21;102739.21;;;14.16;37.09
49063;BME280;34876;51.464;-0.150;2023-03-03T06:05:51;102731.65;;;14.91;36.09
49063;BME280;34876;51.464;-0.150;2023-03-03T06:08:20;102732.84;;;15.69;34.53
49063;BME280;34876;51.464;-0.150;2023-03-03T06:10:49;102729.23;;;14.93;35.16
49063;BME280;34876;51.464;-0.150;2023-03-03T06:13:18;102741.52;;;12.72;36.92
49063;BME280;34876;51.464;-0.150;2023-03-03T06:15:47;102733.70;;;14.07;37.01
49063;BME280;34876;51.464;-0.150;2023-03-03T06:18:18;102734.35;;;14.34;34.67
49063;BME280;34876;51.464;-0.150;2023-03-03T06:20:51;102732.21;;;14.84;36.12
49063;BME280;34876;51.464;-0.150;2023-03-03T06:23:21;102730.61;;;14.77;36.27
49063;BME280;34876;51.464;-0.150;2023-03-03T06:25:50;102728.77;;;14.95;35.42
49063;BME280;34876;51.464;-0.150;2023-03-03T06:28:19;102733.07;;;15.50;34.48
49063;BME280;34876;51.464;-0.150;2023-03-03T06:30:52;102732.50;;;15.12;34.93
49063;BME280;34876;51.464;-0.150;2023-03-03T06:33:22;102734.81;;;15.20;35.34
49063;BME280;34876;51.464;-0.150;2023-03-03T06:35:53;102732.75;;;15.39;33.76
49063;BME280;34876;51.464;-0.150;2023-03-03T06:38:23;102736.72;;;15.18;35.22
49063;BME280;34876;51.464;-0.150;2023-03-03T06:40:52;102736.83;;;14.67;36.23
49063;BME280;34876;51.464;-0.150;2023-03-03T06:43:22;102743.08;;;14.19;37.42
49063;BME280;34876;51.464;-0.150;2023-03-03T06:45:51;102745.17;;;14.14;37.06
49063;BME280;34876;51.464;-0.150;2023-03-03T06:48:21;102741.75;;;14.83;36.05
49063;BME280;34876;51.464;-0.150;2023-03-03T06:50:50;102740.66;;;15.25;34.15
49063;BME280;34876;51.464;-0.150;2023-03-03T06:53:19;102744.94;;;15.65;34.58
49063;BME280;34876;51.464;-0.150;2023-03-03T06:55:49;102744.03;;;15.83;34.08
49063;BME280;34876;51.464;-0.150;2023-03-03T06:58:20;102753.66;;;13.98;35.86
49063;BME280;34876;51.464;-0.150;2023-03-03T07:00:53;102749.72;;;15.47;34.79
49063;BME280;34876;51.464;-0.150;2023-03-03T07:03:24;102757.23;;;15.49;33.82
49063;BME280;34876;51.464;-0.150;2023-03-03T07:05:53;102756.13;;;15.71;34.40
49063;BME280;34876;51.464;-0.150;2023-03-03T07:08:23;102753.87;;;14.97;35.67
49063;BME280;34876;51.464;-0.150;2023-03-03T07:10:53;102756.57;;;15.58;33.37
49063;BME280;34876;51.464;-0.150;2023-03-03T07:13:24;102756.95;;;15.80;34.16
49063;BME280;34876;51.464;-0.150;2023-03-03T07:15:57;102758.91;;;14.89;35.37
49063;BME280;34876;51.464;-0.150;2023-03-03T07:18:37;102768.27;;;13.29;37.63
49063;BME280;34876;51.464;-0.150;2023-03-03T07:21:15;102768.74;;;13.19;37.17
49063;BME280;34876;51.464;-0.150;2023-03-03T07:23:47;102762.71;;;15.16;35.44
49063;BME280;34876;51.464;-0.150;2023-03-03T07:26:20;102767.34;;;15.57;34.56
49063;BME280;34876;51.464;-0.150;2023-03-03T07:28:54;102766.84;;;15.05;32.82
49063;BME280;34876;51.464;-0.150;2023-03-03T07:31:29;102791.52;;;12.05;37.72
49063;BME280;34876;51.464;-0.150;2023-03-03T07:34:00;102773.07;;;13.76;38.27
49063;BME280;34876;51.464;-0.150;2023-03-03T07:36:35;102768.59;;;14.97;35.60
49063;BME280;34876;51.464;-0.150;2023-03-03T07:39:20;102775.69;;;14.75;35.58
49063;BME280;34876;51.464;-0.150;2023-03-03T07:41:49;102778.03;;;14.93;35.79
49063;BME280;34876;51.464;-0.150;2023-03-03T07:44:22;102776.34;;;15.25;35.15
49063;BME280;34876;51.464;-0.150;2023-03-03T07:46:54;102787.69;;;14.02;37.52
49063;BME280;34876;51.464;-0.150;2023-03-03T07:49:32;102795.22;;;13.27;38.98
49063;BME280;34876;51.464;-0.150;2023-03-03T07:52:22;102805.10;;;12.44;38.49
49063;BME280;34876;51.464;-0.150;2023-03-03T07:54:54;102790.77;;;14.77;36.29
49063;BME280;34876;51.464;-0.150;2023-03-03T07:57:26;102801.76;;;14.80;34.45
49063;BME280;34876;51.464;-0.150;2023-03-03T07:59:59;102805.37;;;12.93;38.68
49063;BME280;34876;51.464;-0.150;2023-03-03T08:02:37;102814.21;;;14.46;36.75
49063;BME280;34876;51.464;-0.150;2023-03-03T08:05:28;102812.21;;;14.53;36.47
49063;BME280;34876;51.464;-0.150;2023-03-03T08:08:12;102810.46;;;14.57;36.41
49063;BME280;34876;51.464;-0.150;2023-03-03T08:10:46;102811.14;;;14.18;36.54
49063;BME280;34876;51.464;-0.150;2023-03-03T08:13:18;102827.59;;;12.50;39.80
49063;BME280;34876;51.464;-0.150;2023-03-03T08:15:51;102817.31;;;13.67;38.49
49063;BME280;34876;51.464;-0.150;2023-03-03T08:18:28;102817.57;;;14.11;37.62
49063;BME280;34876;51.464;-0.150;2023-03-03T08:20:59;102823.80;;;14.42;35.04
49063;BME280;34876;51.464;-0.150;2023-03-03T08:23:29;102823.85;;;14.01;36.74
49063;BME280;34876;51.464;-0.150;2023-03-03T08:25:58;102828.80;;;14.25;37.00
49063;BME280;34876;51.464;-0.150;2023-03-03T08:28:27;102843.52;;;12.15;39.00
49063;BME280;34876;51.464;-0.150;2023-03-03T08:30:57;102842.81;;;12.59;40.56
49063;BME280;34876;51.464;-0.150;2023-03-03T08:33:26;102831.43;;;13.67;38.40
49063;BME280;34876;51.464;-0.150;2023-03-03T08:35:55;102838.63;;;12.48;39.49
49063;BME280;34876;51.464;-0.150;2023-03-03T08:38:24;102842.01;;;12.11;42.26
49063;BME280;34876;51.464;-0.150;2023-03-03T08:40:54;102830.25;;;12.94;39.92
49063;BME280;34876;51.464;-0.150;2023-03-03T08:43:24;102823.57;;;13.72;37.65
49063;BME280;34876;51.464;-0.150;2023-03-03T08:45:57;102824.41;;;14.76;36.30
49063;BME280;34876;51.464;-0.150;2023-03-03T08:48:32;102819.22;;;15.56;34.71
49063;BME280;34876;51.464;-0.150;2023-03-03T08:51:03;102825.30;;;13.89;35.94
49063;BME280;34876;51.464;-0.150;2023-03-03T08:53:33;102823.24;;;14.24;37.16
49063;BME280;34876;51.464;-0.150;2023-03-03T08:56:02;102822.34;;;14.84;35.95
49063;BME280;34876;51.464;-0.150;2023-03-03T08:58:32;102827.55;;;13.34;38.12
49063;BME280;34876;51.464;-0.150;2023-03-03T09:01:02;102821.51;;;14.62;36.47
49063;BME280;34876;51.464;-0.150;2023-03-03T09:03:32;102813.07;;;15.13;34.57
49063;BME280;34876;51.464;-0.150;2023-03-03T09:06:03;102814.88;;;15.10;35.34
49063;BME280;34876;51.464;-0.150;2023-03-03T09:08:33;102816.53;;;14.86;34.65
49063;BME280;34876;51.464;-0.150;2023-03-03T09:11:07;102831.64;;;11.97;38.63
49063;BME280;34876;51.464;-0.150;2023-03-03T09:13:37;102823.90;;;14.54;36.73
49063;BME280;34876;51.464;-0.150;2023-03-03T09:16:12;102826.56;;;14.64;34.87
49063;BME280;34876;51.464;-0.150;2023-03-03T09:18:43;102830.28;;;14.66;35.16
49063;BME280;34876;51.464;-0.150;2023-03-03T09:21:21;102831.11;;;14.08;36.07
49063;BME280;34876;51.464;-0.150;2023-03-03T09:23:54;102828.51;;;15.13;35.46
49063;BME280;34876;51.464;-0.150;2023-03-03T09:26:27;102836.06;;;14.75;36.06
49063;BME280;34876;51.464;-0.150;2023-03-03T09:29:08;102838.04;;;13.69;36.04
49063;BME280;34876;51.464;-0.150;2023-03-03T09:31:48;102839.26;;;13.45;37.22
49063;BME280;34876;51.464;-0.150;2023-03-03T09:34:22;102832.73;;;15.44;34.96
49063;BME280;34876;51.464;-0.150;2023-03-03T09:36:54;102849.10;;;12.70;38.16
49063;BME280;34876;51.464;-0.150;2023-03-03T09:39:26;102840.43;;;14.71;36.49
49063;BME280;34876;51.464;-0.150;2023-03-03T09:42:14;102844.41;;;13.18;37.07
49063;BME280;34876;51.464;-0.150;2023-03-03T09:44:55;102858.10;;;10.38;43.13
49063;BME280;34876;51.464;-0.150;2023-03-03T09:47:42;102845.11;;;12.70;40.63
49063;BME280;34876;51.464;-0.150;2023-03-03T09:50:22;102850.28;;;11.87;39.79
49063;BME280;34876;51.464;-0.150;2023-03-03T09:53:06;102853.44;;;12.74;38.80
49063;BME280;34876;51.464;-0.150;2023-03-03T09:55:43;102859.36;;;11.48;42.59
49063;BME280;34876;51.464;-0.150;2023-03-03T09:58:31;102855.80;;;11.63;42.74
49063;BME280;34876;51.464;-0.150;2023-03-03T10:01:15;102863.30;;;10.64;45.38
49063;BME280;34876;51.464;-0.150;2023-03-03T10:04:01;102862.16;;;11.52;41.46
49063;BME280;34876;51.464;-0.150;2023-03-03T10:06:37;102863.78;;;9.92;47.34
49063;BME280;34876;51.464;-0.150;2023-03-03T10:09:38;102863.49;;;10.12;45.26
49063;BME280;34876;51.464;-0.150;2023-03-03T10:12:15;102856.84;;;13.28;38.71
49063;BME280;34876;51.464;-0.150;2023-03-03T10:14:57;102858.19;;;13.60;37.24
49063;BME280;34876;51.464;-0.150;2023-03-03T10:17:40;102867.24;;;13.23;38.41
49063;BME280;34876;51.464;-0.150;2023-03-03T10:20:25;102874.00;;;12.86;40.21
49063;BME280;34876;51.464;-0.150;2023-03-03T10:23:02;102872.68;;;13.34;38.53
49063;BME280;34876;51.464;-0.150;2023-03-03T10:25:38;102874.13;;;13.65;38.43
49063;BME280;34876;51.464;-0.150;2023-03-03T10:28:39;102871.99;;;14.90;34.68
49063;BME280;34876;51.464;-0.150;2023-03-03T10:31:21;102872.33;;;14.64;36.19
49063;BME280;34876;51.464;-0.150;2023-03-03T10:33:57;102880.12;;;12.26;38.76
49063;BME280;34876;51.464;-0.150;2023-03-03T10:36:39;102881.10;;;11.97;41.04
49063;BME280;34876;51.464;-0.150;2023-03-03T10:39:26;102879.01;;;12.01;40.44
49063;BME280;34876;51.464;-0.150;2023-03-03T10:42:11;102879.96;;;13.03;39.88
49063;BME280;34876;51.464;-0.150;2023-03-03T10:44:55;102872.58;;;13.64;38.65
49063;BME280;34876;51.464;-0.150;2023-03-03T10:47:37;102879.39;;;12.92;39.23
49063;BME280;34876;51.464;-0.150;2023-03-03T10:50:18;102878.96;;;12.27;41.29
49063;BME280;34876;51.464;-0.150;2023-03-03T10:52:52;102872.08;;;14.39;37.33
49063;BME280;34876;51.464;-0.150;2023-03-03T10:55:34;102882.30;;;13.18;39.47
49063;BME280;34876;51.464;-0.150;2023-03-03T10:58:17;102873.77;;;14.37;37.22
49063;BME280;34876;51.464;-0.150;2023-03-03T11:01:03;102875.83;;;14.56;35.02
49063;BME280;34876;51.464;-0.150;2023-03-03T11:04:11;102890.17;;;12.95;37.70
49063;BME280;34876;51.464;-0.150;2023-03-03T11:06:48;102879.20;;;14.02;37.78
49063;BME280;34876;51.464;-0.150;2023-03-03T11:09:37;102891.46;;;11.95;40.66
49063;BME280;34876;51.464;-0.150;2023-03-03T11:12:24;102886.34;;;13.41;37.49
49063;BME280;34876;51.464;-0.150;2023-03-03T11:15:10;102888.32;;;13.61;38.19
49063;BME280;34876;51.464;-0.150;2023-03-03T11:17:53;102896.25;;;12.38;39.80
49063;BME280;34876;51.464;-0.150;2023-03-03T11:20:33;102898.71;;;11.49;42.06
49063;BME280;34876;51.464;-0.150;2023-03-03T11:23:15;102903.19;;;10.79;42.91
49063;BME280;34876;51.464;-0.150;2023-03-03T11:25:56;102905.30;;;10.96;42.53
49063;BME280;34876;51.464;-0.150;2023-03-03T11:28:45;102899.88;;;10.81;41.93
49063;BME280;34876;51.464;-0.150;2023-03-03T11:31:21;102893.56;;;12.93;40.15
49063;BME280;34876;51.464;-0.150;2023-03-03T11:34:00;102881.92;;;14.19;37.40
49063;BME280;34876;51.464;-0.150;2023-03-03T11:36:35;102885.61;;;13.54;36.56
49063;BME280;34876;51.464;-0.150;2023-03-03T11:39:08;102883.28;;;14.26;37.42
49063;BME280;34876;51.464;-0.150;2023-03-03T11:41:41;102883.49;;;14.00;37.47
49063;BME280;34876;51.464;-0.150;2023-03-03T11:44:17;102895.13;;;13.08;35.80
49063;BME280;34876;51.464;-0.150;2023-03-03T11:46:54;102888.49;;;12.85;40.22
49063;BME280;34876;51.464;-0.150;2023-03-03T11:49:30;102885.46;;;13.16;39.29
49063;BME280;34876;51.464;-0.150;2023-03-03T11:52:10;102882.75;;;13.65;38.38
49063;BME280;34876;51.464;-0.150;2023-03-03T11:54:52;102879.90;;;13.74;35.94
49063;BME280;34876;51.464;-0.150;2023-03-03T11:57:28;102880.46;;;13.12;39.62
49063;BME280;34876;51.464;-0.150;2023-03-03T12:00:04;102893.95;;;10.59;40.57
49063;BME280;34876;51.464;-0.150;2023-03-03T12:02:44;102885.42;;;12.35;40.99
49063;BME280;34876;51.464;-0.150;2023-03-03T12:05:30;102896.55;;;10.74;39.70
49063;BME280;34876;51.464;-0.150;2023-03-03T12:08:11;102892.33;;;11.82;39.99
49063;BME280;34876;51.464;-0.150;2023-03-03T12:10:45;102891.57;;;11.09;40.63
49063;BME280;34876;51.464;-0.150;2023-03-03T12:13:20;102905.86;;;8.93;43.89
49063;BME280;34876;51.464;-0.150;2023-03-03T12:15:56;102893.07;;;9.76;42.34
49063;BME280;34876;51.464;-0.150;2023-03-03T12:18:41;102876.89;;;13.46;37.24
49063;BME280;34876;51.464;-0.150;2023-03-03T12:21:25;102874.33;;;13.49;37.75
49063;BME280;34876;51.464;-0.150;2023-03-03T12:24:14;102885.73;;;11.19;38.20
49063;BME280;34876;51.464;-0.150;2023-03-03T12:26:56;102884.02;;;10.23;44.34
49063;BME280;34876;51.464;-0.150;2023-03-03T12:29:36;102878.94;;;11.02;41.97
49063;BME280;34876;51.464;-0.150;2023-03-03T12:32:20;102867.91;;;13.24;38.33
49063;BME280;34876;51.464;-0.150;2023-03-03T12:34:59;102865.58;;;13.63;35.32
49063;BME280;34876;51.464;-0.150;2023-03-03T12:37:45;102873.74;;;12.62;36.16
49063;BME280;34876;51.464;-0.150;2023-03-03T12:40:18;102876.53;;;10.64;39.57
49063;BME280;34876;51.464;-0.150;2023-03-03T12:42:59;102877.08;;;10.25;40.47
49063;BME280;34876;51.464;-0.150;2023-03-03T12:45:37;102866.11;;;11.55;38.23
49063;BME280;34876;51.464;-0.150;2023-03-03T12:48:16;102857.00;;;13.38;38.36
49063;BME280;34876;51.464;-0.150;2023-03-03T12:50:53;102855.09;;;13.75;34.56
49063;BME280;34876;51.464;-0.150;2023-03-03T12:53:43;102869.31;;;11.90;39.10
49063;BME280;34876;51.464;-0.150;2023-03-03T12:56:21;102867.98;;;12.01;39.04
49063;BME280;34876;51.464;-0.150;2023-03-03T12:59:00;102865.64;;;12.68;38.53
49063;BME280;34876;51.464;-0.150;2023-03-03T13:01:41;102871.54;;;11.38;41.92
49063;BME280;34876;51.464;-0.150;2023-03-03T13:04:27;102869.55;;;12.05;37.79
49063;BME280;34876;51.464;-0.150;2023-03-03T13:07:05;102873.66;;;12.36;36.93
49063;BME280;34876;51.464;-0.150;2023-03-03T13:09:50;102869.31;;;11.36;41.94
49063;BME280;34876;51.464;-0.150;2023-03-03T13:12:31;102867.92;;;12.13;39.71
49063;BME280;34876;51.464;-0.150;2023-03-03T13:15:12;102869.76;;;11.23;39.94
49063;BME280;34876;51.464;-0.150;2023-03-03T13:17:52;102875.64;;;9.23;44.51
49063;BME280;34876;51.464;-0.150;2023-03-03T13:20:30;102866.11;;;9.97;43.07